sensor_id;sensor_type;location;lat;lon;timestamp;P1;durP1;ratioP1;P2;durP2;ratioP2
36303;SDS011;22335;49.800;8.596;2024-03-02T00:02:39;23.27;;;21.48;;
36303;SDS011;22335;49.800;8.596;2024-03-02T00:09:24;22.98;;;21.33;;
36303;SDS011;22335;49.800;8.596;2024-03-02T00:16:08;23.58;;;21.73;;
36303;SDS011;22335;49.800;8.596;2024-03-02T00:22:52;23.98;;;21.92;;
36303;SDS011;22335;49.800;8.596;2024-03-02T00:29:47;24.40;;;22.60;;
36303;SDS011;22335;49.800;8.596;2024-03-02T00:36:31;27.52;;;25.13;;
36303;SDS011;22335;49.800;8.596;2024-03-02T00:50:27;27.50;;;25.10;;
36303;SDS011;22335;49.800;8.596;2024-03-02T00:57:11;27.17;;;24.88;;
36303;SDS011;22335;49.800;8.596;2024-03-02T01:03:54;26.63;;;24.52;;
36303;SDS011;22335;49.800;8.596;2024-03-02T01:10:39;25.65;;;23.65;;
36303;SDS011;22335;49.800;8.596;2024-03-02T01:17:23;26.65;;;24.35;;
36303;SDS011;22335;49.800;8.596;2024-03-02T01:24:06;26.40;;;24.10;;
36303;SDS011;22335;49.800;8.596;2024-03-02T01:30:51;26.13;;;23.92;;
36303;SDS011;22335;49.800;8.596;2024-03-02T01:37:35;26.13;;;23.83;;
36303;SDS011;22335;49.800;8.596;2024-03-02T01:44:18;27.52;;;25.02;;
36303;SDS011;22335;49.800;8.596;2024-03-02T01:51:03;27.42;;;25.13;;
36303;SDS011;22335;49.800;8.596;2024-03-02T01:57:47;27.23;;;24.95;;
36303;SDS011;22335;49.800;8.596;2024-03-02T02:04:33;27.23;;;24.90;;
36303;SDS011;22335;49.800;8.596;2024-03-02T02:11:18;26.70;;;24.60;;
36303;SDS011;22335;49.800;8.596;2024-03-02T02:18:02;27.27;;;25.00;;
36303;SDS011;22335;49.800;8.596;2024-03-02T02:24:48;27.17;;;24.95;;
36303;SDS011;22335;49.800;8.596;2024-03-02T02:31:36;26.63;;;24.40;;
36303;SDS011;22335;49.800;8.596;2024-03-02T02:38:21;26.30;;;24.25;;
36303;SDS011;22335;49.800;8.596;2024-03-02T02:45:06;26.60;;;24.30;;
36303;SDS011;22335;49.800;8.596;2024-03-02T02:51:50;27.35;;;25.05;;
36303;SDS011;22335;49.800;8.596;2024-03-02T02:58:34;27.05;;;24.75;;
36303;SDS011;22335;49.800;8.596;2024-03-02T03:05:20;27.00;;;24.80;;
36303;SDS011;22335;49.800;8.596;2024-03-02T03:12:03;26.13;;;24.05;;
36303;SDS011;22335;49.800;8.596;2024-03-02T03:18:47;25.58;;;23.50;;
36303;SDS011;22335;49.800;8.596;2024-03-02T03:25:34;25.88;;;23.73;;
36303;SDS011;22335;49.800;8.596;2024-03-02T03:32:18;26.27;;;24.27;;
36303;SDS011;22335;49.800;8.596;2024-03-02T03:39:01;28.10;;;25.85;;
36303;SDS011;22335;49.800;8.596;2024-03-02T04:07:34;27.92;;;25.70;;
36303;SDS011;22335;49.800;8.596;2024-03-02T04:14:21;28.55;;;26.17;;
36303;SDS011;22335;49.800;8.596;2024-03-02T04:21:06;27.98;;;25.52;;
36303;SDS011;22335;49.800;8.596;2024-03-02T04:27:49;27.85;;;25.75;;
36303;SDS011;22335;49.800;8.596;2024-03-02T04:34:33;27.88;;;25.48;;
36303;SDS011;22335;49.800;8.596;2024-03-02T04:41:18;28.55;;;26.15;;
36303;SDS011;22335;49.800;8.596;2024-03-02T04:48:02;27.88;;;25.67;;
36303;SDS011;22335;49.800;8.596;2024-03-02T04:54:45;27.58;;;25.38;;
36303;SDS011;22335;49.800;8.596;2024-03-02T05:01:48;26.05;;;24.15;;
36303;SDS011;22335;49.800;8.596;2024-03-02T05:08:31;27.20;;;25.00;;
36303;SDS011;22335;49.800;8.596;2024-03-02T05:15:15;25.05;;;23.08;;
36303;SDS011;22335;49.800;8.596;2024-03-02T05:22:00;26.10;;;24.20;;
36303;SDS011;22335;49.800;8.596;2024-03-02T05:28:44;25.48;;;23.58;;
36303;SDS011;22335;49.800;8.596;2024-03-02T05:35:28;25.88;;;23.77;;
36303;SDS011;22335;49.800;8.596;2024-03-02T05:42:12;26.45;;;24.23;;
36303;SDS011;22335;49.800;8.596;2024-03-02T05:48:58;25.35;;;23.52;;
36303;SDS011;22335;49.800;8.596;2024-03-02T05:55:42;25.92;;;23.85;;
36303;SDS011;22335;49.800;8.596;2024-03-02T06:02:27;27.30;;;25.10;;
36303;SDS011;22335;49.800;8.596;2024-03-02T06:09:11;27.33;;;25.23;;
36303;SDS011;22335;49.800;8.596;2024-03-02T06:15:54;27.08;;;24.88;;
36303;SDS011;22335;49.800;8.596;2024-03-02T06:22:39;28.63;;;26.35;;
36303;SDS011;22335;49.800;8.596;2024-03-02T06:29:22;27.98;;;25.65;;
36303;SDS011;22335;49.800;8.596;2024-03-02T06:36:06;28.48;;;26.20;;
36303;SDS011;22335;49.800;8.596;2024-03-02T06:42:52;27.98;;;25.85;;
36303;SDS011;22335;49.800;8.596;2024-03-02T06:49:36;28.95;;;26.83;;
36303;SDS011;22335;49.800;8.596;2024-03-02T06:56:19;31.05;;;28.30;;
36303;SDS011;22335;49.800;8.596;2024-03-02T07:03:04;28.52;;;26.00;;
36303;SDS011;22335;49.800;8.596;2024-03-02T07:09:47;31.60;;;28.70;;
36303;SDS011;22335;49.800;8.596;2024-03-02T07:16:31;30.95;;;28.27;;
36303;SDS011;22335;49.800;8.596;2024-03-02T07:23:17;29.48;;;27.02;;
36303;SDS011;22335;49.800;8.596;2024-03-02T07:30:02;32.47;;;29.77;;
36303;SDS011;22335;49.800;8.596;2024-03-02T07:36:46;30.33;;;27.70;;
36303;SDS011;22335;49.800;8.596;2024-03-02T07:43:31;30.13;;;27.27;;
36303;SDS011;22335;49.800;8.596;2024-03-02T07:50:15;28.23;;;25.92;;
36303;SDS011;22335;49.800;8.596;2024-03-02T07:56:59;27.40;;;25.05;;
36303;SDS011;22335;49.800;8.596;2024-03-02T08:03:45;27.85;;;25.38;;
36303;SDS011;22335;49.800;8.596;2024-03-02T08:10:31;28.25;;;25.73;;
36303;SDS011;22335;49.800;8.596;2024-03-02T08:17:15;30.27;;;27.58;;
36303;SDS011;22335;49.800;8.596;2024-03-02T08:24:00;30.17;;;27.58;;
36303;SDS011;22335;49.800;8.596;2024-03-02T08:30:44;29.25;;;26.85;;
36303;SDS011;22335;49.800;8.596;2024-03-02T08:37:27;29.67;;;26.98;;
36303;SDS011;22335;49.800;8.596;2024-03-02T08:44:13;28.35;;;25.85;;
36303;SDS011;22335;49.800;8.596;2024-03-02T08:50:57;29.02;;;26.33;;
36303;SDS011;22335;49.800;8.596;2024-03-02T08:57:40;27.90;;;25.50;;
36303;SDS011;22335;49.800;8.596;2024-03-02T09:04:27;27.35;;;24.83;;
36303;SDS011;22335;49.800;8.596;2024-03-02T09:11:12;27.60;;;25.17;;
36303;SDS011;22335;49.800;8.596;2024-03-02T09:17:56;27.10;;;24.90;;
36303;SDS011;22335;49.800;8.596;2024-03-02T09:24:41;25.88;;;23.55;;
36303;SDS011;22335;49.800;8.596;2024-03-02T09:31:24;25.92;;;23.63;;
36303;SDS011;22335;49.800;8.596;2024-03-02T09:38:07;26.02;;;23.88;;
36303;SDS011;22335;49.800;8.596;2024-03-02T09:44:52;25.65;;;23.15;;
36303;SDS011;22335;49.800;8.596;2024-03-02T09:51:36;26.02;;;23.58;;
36303;SDS011;22335;49.800;8.596;2024-03-02T09:58:20;26.40;;;24.00;;
36303;SDS011;22335;49.800;8.596;2024-03-02T10:05:05;25.13;;;22.98;;
36303;SDS011;22335;49.800;8.596;2024-03-02T10:11:49;25.48;;;23.38;;
36303;SDS011;22335;49.800;8.596;2024-03-02T10:18:33;24.48;;;22.20;;
36303;SDS011;22335;49.800;8.596;2024-03-02T10:25:29;25.30;;;23.17;;
36303;SDS011;22335;49.800;8.596;2024-03-02T10:32:17;44.83;;;21.53;;
36303;SDS011;22335;49.800;8.596;2024-03-02T10:39:01;23.02;;;20.92;;
36303;SDS011;22335;49.800;8.596;2024-03-02T10:45:47;22.17;;;20.15;;
36303;SDS011;22335;49.800;8.596;2024-03-02T10:52:32;22.10;;;20.25;;
36303;SDS011;22335;49.800;8.596;2024-03-02T10:59:17;22.88;;;18.23;;
36303;SDS011;22335;49.800;8.596;2024-03-02T11:06:09;20.08;;;18.40;;
36303;SDS011;22335;49.800;8.596;2024-03-02T11:12:56;18.45;;;17.10;;
36303;SDS011;22335;49.800;8.596;2024-03-02T11:26:31;19.58;;;18.02;;
36303;SDS011;22335;49.800;8.596;2024-03-02T11:42:16;16.45;;;15.10;;
36303;SDS011;22335;49.800;8.596;2024-03-02T11:49:00;15.57;;;14.48;;
36303;SDS011;22335;49.800;8.596;2024-03-02T11:55:43;15.98;;;14.80;;
36303;SDS011;22335;49.800;8.596;2024-03-02T12:02:29;15.70;;;14.40;;
36303;SDS011;22335;49.800;8.596;2024-03-02T12:09:13;13.82;;;13.02;;
36303;SDS011;22335;49.800;8.596;2024-03-02T12:15:57;14.25;;;13.35;;
36303;SDS011;22335;49.800;8.596;2024-03-02T12:22:41;12.27;;;11.57;;
36303;SDS011;22335;49.800;8.596;2024-03-02T12:29:27;12.52;;;11.75;;
36303;SDS011;22335;49.800;8.596;2024-03-02T12:36:10;11.93;;;11.23;;
36303;SDS011;22335;49.800;8.596;2024-03-02T12:42:56;12.63;;;11.93;;
36303;SDS011;22335;49.800;8.596;2024-03-02T12:49:40;12.82;;;11.93;;
36303;SDS011;22335;49.800;8.596;2024-03-02T12:56:23;12.43;;;11.73;;
36303;SDS011;22335;49.800;8.596;2024-03-02T13:03:09;12.40;;;11.60;;
36303;SDS011;22335;49.800;8.596;2024-03-02T13:09:54;12.77;;;12.00;;
36303;SDS011;22335;49.800;8.596;2024-03-02T13:16:38;12.40;;;11.60;;
36303;SDS011;22335;49.800;8.596;2024-03-02T13:23:26;11.88;;;11.18;;
36303;SDS011;22335;49.800;8.596;2024-03-02T13:30:12;11.10;;;10.50;;
36303;SDS011;22335;49.800;8.596;2024-03-02T13:36:55;11.30;;;10.70;;
36303;SDS011;22335;49.800;8.596;2024-03-02T13:43:40;11.82;;;11.13;;
36303;SDS011;22335;49.800;8.596;2024-03-02T13:50:26;12.55;;;11.73;;
36303;SDS011;22335;49.800;8.596;2024-03-02T13:57:10;12.48;;;11.70;;
36303;SDS011;22335;49.800;8.596;2024-03-02T14:03:56;13.07;;;12.32;;
36303;SDS011;22335;49.800;8.596;2024-03-02T14:10:39;12.43;;;11.50;;
36303;SDS011;22335;49.800;8.596;2024-03-02T14:17:24;12.45;;;11.40;;
36303;SDS011;22335;49.800;8.596;2024-03-02T14:24:09;12.40;;;11.70;;
36303;SDS011;22335;49.800;8.596;2024-03-02T14:30:52;11.90;;;11.20;;
36303;SDS011;22335;49.800;8.596;2024-03-02T14:37:36;12.00;;;11.30;;
36303;SDS011;22335;49.800;8.596;2024-03-02T14:44:20;12.13;;;11.43;;
36303;SDS011;22335;49.800;8.596;2024-03-02T14:51:04;11.45;;;10.75;;
36303;SDS011;22335;49.800;8.596;2024-03-02T14:57:48;11.93;;;11.23;;
36303;SDS011;22335;49.800;8.596;2024-03-02T15:04:32;12.10;;;11.40;;
36303;SDS011;22335;49.800;8.596;2024-03-02T15:11:16;12.10;;;11.40;;
36303;SDS011;22335;49.800;8.596;2024-03-02T15:17:59;13.85;;;12.82;;
36303;SDS011;22335;49.800;8.596;2024-03-02T15:24:45;12.68;;;11.77;;
36303;SDS011;22335;49.800;8.596;2024-03-02T15:31:28;11.95;;;11.00;;
36303;SDS011;22335;49.800;8.596;2024-03-02T15:38:12;11.88;;;11.18;;
36303;SDS011;22335;49.800;8.596;2024-03-02T15:44:59;11.68;;;10.90;;
36303;SDS011;22335;49.800;8.596;2024-03-02T15:51:43;17.83;;;16.40;;
36303;SDS011;22335;49.800;8.596;2024-03-02T15:58:27;11.95;;;11.25;;
36303;SDS011;22335;49.800;8.596;2024-03-02T16:05:11;11.70;;;11.00;;
36303;SDS011;22335;49.800;8.596;2024-03-02T16:11:55;13.23;;;12.32;;
36303;SDS011;22335;49.800;8.596;2024-03-02T16:18:38;17.42;;;16.08;;
36303;SDS011;22335;49.800;8.596;2024-03-02T16:32:54;20.10;;;18.42;;
36303;SDS011;22335;49.800;8.596;2024-03-02T16:39:37;13.68;;;12.60;;
36303;SDS011;22335;49.800;8.596;2024-03-02T16:46:22;14.30;;;13.30;;
36303;SDS011;22335;49.800;8.596;2024-03-02T16:53:06;19.73;;;17.73;;
36303;SDS011;22335;49.800;8.596;2024-03-02T16:59:49;17.52;;;15.85;;
36303;SDS011;22335;49.800;8.596;2024-03-02T17:06:34;15.30;;;14.10;;
36303;SDS011;22335;49.800;8.596;2024-03-02T17:13:18;18.73;;;16.92;;
36303;SDS011;22335;49.800;8.596;2024-03-02T17:20:02;16.20;;;14.80;;
36303;SDS011;22335;49.800;8.596;2024-03-02T17:26:51;17.55;;;16.05;;
36303;SDS011;22335;49.800;8.596;2024-03-02T17:33:35;83.15;;;55.22;;
36303;SDS011;22335;49.800;8.596;2024-03-02T17:40:19;20.02;;;18.20;;
36303;SDS011;22335;49.800;8.596;2024-03-02T17:47:04;16.35;;;15.02;;
36303;SDS011;22335;49.800;8.596;2024-03-02T17:53:48;15.68;;;14.40;;
36303;SDS011;22335;49.800;8.596;2024-03-02T18:08:56;15.00;;;13.90;;
36303;SDS011;22335;49.800;8.596;2024-03-02T18:15:39;15.82;;;14.73;;
36303;SDS011;22335;49.800;8.596;2024-03-02T18:22:23;15.05;;;14.05;;
36303;SDS011;22335;49.800;8.596;2024-03-02T18:29:07;14.88;;;13.85;;
36303;SDS011;22335;49.800;8.596;2024-03-02T18:35:51;15.77;;;14.68;;
36303;SDS011;22335;49.800;8.596;2024-03-02T18:42:36;15.32;;;14.32;;
36303;SDS011;22335;49.800;8.596;2024-03-02T18:49:21;13.52;;;12.82;;
36303;SDS011;22335;49.800;8.596;2024-03-02T18:56:05;16.50;;;15.10;;
36303;SDS011;22335;49.800;8.596;2024-03-02T19:02:49;14.95;;;14.05;;
36303;SDS011;22335;49.800;8.596;2024-03-02T19:09:35;14.52;;;13.63;;
36303;SDS011;22335;49.800;8.596;2024-03-02T19:16:18;16.48;;;15.38;;
36303;SDS011;22335;49.800;8.596;2024-03-02T19:23:02;15.82;;;14.73;;
36303;SDS011;22335;49.800;8.596;2024-03-02T19:29:47;16.55;;;15.40;;
36303;SDS011;22335;49.800;8.596;2024-03-02T19:36:31;17.40;;;16.10;;
36303;SDS011;22335;49.800;8.596;2024-03-02T19:43:14;16.73;;;15.52;;
36303;SDS011;22335;49.800;8.596;2024-03-02T19:50:00;17.08;;;15.73;;
36303;SDS011;22335;49.800;8.596;2024-03-02T19:56:46;16.42;;;15.32;;
36303;SDS011;22335;49.800;8.596;2024-03-02T20:03:29;16.48;;;15.23;;
36303;SDS011;22335;49.800;8.596;2024-03-02T20:10:14;17.80;;;16.42;;
36303;SDS011;22335;49.800;8.596;2024-03-02T20:16:58;18.50;;;17.00;;
36303;SDS011;22335;49.800;8.596;2024-03-02T20:23:41;18.58;;;17.15;;
36303;SDS011;22335;49.800;8.596;2024-03-02T20:30:26;17.73;;;16.33;;
36303;SDS011;22335;49.800;8.596;2024-03-02T20:37:10;18.83;;;17.42;;
36303;SDS011;22335;49.800;8.596;2024-03-02T20:43:53;18.75;;;17.00;;
36303;SDS011;22335;49.800;8.596;2024-03-02T20:50:38;19.30;;;17.90;;
36303;SDS011;22335;49.800;8.596;2024-03-02T20:57:21;21.17;;;19.33;;
36303;SDS011;22335;49.800;8.596;2024-03-02T21:04:05;21.88;;;19.92;;
36303;SDS011;22335;49.800;8.596;2024-03-02T21:10:56;21.95;;;20.05;;
36303;SDS011;22335;49.800;8.596;2024-03-02T21:17:39;22.35;;;20.33;;
36303;SDS011;22335;49.800;8.596;2024-03-02T21:24:23;22.25;;;20.25;;
36303;SDS011;22335;49.800;8.596;2024-03-02T21:31:08;22.70;;;20.80;;
36303;SDS011;22335;49.800;8.596;2024-03-02T21:44:44;21.00;;;19.20;;
36303;SDS011;22335;49.800;8.596;2024-03-02T21:51:28;21.92;;;19.90;;
36303;SDS011;22335;49.800;8.596;2024-03-02T21:58:12;22.58;;;20.58;;
36303;SDS011;22335;49.800;8.596;2024-03-02T22:04:56;22.55;;;20.55;;
36303;SDS011;22335;49.800;8.596;2024-03-02T22:11:41;23.80;;;21.52;;
36303;SDS011;22335;49.800;8.596;2024-03-02T22:18:25;25.42;;;23.10;;
36303;SDS011;22335;49.800;8.596;2024-03-02T22:25:09;29.40;;;24.55;;
36303;SDS011;22335;49.800;8.596;2024-03-02T22:31:54;25.23;;;22.60;;
36303;SDS011;22335;49.800;8.596;2024-03-02T22:38:37;26.45;;;23.85;;
36303;SDS011;22335;49.800;8.596;2024-03-02T22:45:21;26.92;;;24.17;;
36303;SDS011;22335;49.800;8.596;2024-03-02T22:52:06;26.70;;;24.10;;
36303;SDS011;22335;49.800;8.596;2024-03-02T22:58:49;28.08;;;25.17;;
36303;SDS011;22335;49.800;8.596;2024-03-02T23:05:33;26.77;;;24.17;;
36303;SDS011;22335;49.800;8.596;2024-03-02T23:12:17;27.48;;;24.80;;
36303;SDS011;22335;49.800;8.596;2024-03-02T23:19:01;27.63;;;24.70;;
36303;SDS011;22335;49.800;8.596;2024-03-02T23:25:45;27.67;;;25.08;;
36303;SDS011;22335;49.800;8.596;2024-03-02T23:32:30;28.58;;;25.67;;
36303;SDS011;22335;49.800;8.596;2024-03-02T23:39:14;31.08;;;27.83;;
36303;SDS011;22335;49.800;8.596;2024-03-02T23:46:19;28.05;;;25.25;;
36303;SDS011;22335;49.800;8.596;2024-03-02T23:53:03;29.02;;;25.95;;
36303;SDS011;22335;49.800;8.596;2024-03-02T23:59:47;30.92;;;27.52;;
